Bothell, Washington
Current Conditions -  °F | °C
As of 3:53 AM on Friday 24 Oct 2014 (Local Time) from KPAE Reporting Station
Overcast Overcast  
Wind Chill: 44°   Ceiling: 4300
Heat Index: 49°   Visibility: 10mi
Dew Point: 44°   Wind: 12mph
Humidity: 83%   Direction: 160°SSE
Pressure: 30.04"   Gusts: NA
Location:  47.76°N, 122.2°W
Report Text: KPAE 241053Z AUTO 16010KT 10SM OVC043 09/07 A3004 RMK AO2 SLP173 T00940067
Loading
Personal Weather Stations






























Interactive Weather Map
Tropical Storm Tracking
New forecast layout! Learn more

10-Day Weather Forecast

Advertisements
Track Severe Weather on mobile